sensor_id;sensor_type;location;lat;lon;timestamp;P1;durP1;ratioP1;P2;durP2;ratioP2
76786;SDS011;65739;51.482;5.702;2023-02-01T00:00:58;22.08;;;5.78;;
76786;SDS011;65739;51.482;5.702;2023-02-01T00:03:39;19.90;;;6.15;;
76786;SDS011;65739;51.482;5.702;2023-02-01T00:06:21;23.80;;;5.70;;
76786;SDS011;65739;51.482;5.702;2023-02-01T00:08:56;24.83;;;5.10;;
76786;SDS011;65739;51.482;5.702;2023-02-01T00:11:39;15.60;;;4.70;;
76786;SDS011;65739;51.482;5.702;2023-02-01T00:14:05;17.98;;;4.88;;
76786;SDS011;65739;51.482;5.702;2023-02-01T00:16:31;21.00;;;4.50;;
76786;SDS011;65739;51.482;5.702;2023-02-01T00:19:14;20.00;;;4.82;;
76786;SDS011;65739;51.482;5.702;2023-02-01T00:21:43;19.83;;;4.38;;
76786;SDS011;65739;51.482;5.702;2023-02-01T00:24:10;26.05;;;4.43;;
76786;SDS011;65739;51.482;5.702;2023-02-01T00:26:43;22.92;;;4.10;;
76786;SDS011;65739;51.482;5.702;2023-02-01T00:29:15;16.70;;;3.67;;
76786;SDS011;65739;51.482;5.702;2023-02-01T00:31:43;15.98;;;3.83;;
76786;SDS011;65739;51.482;5.702;2023-02-01T00:34:18;22.00;;;3.67;;
76786;SDS011;65739;51.482;5.702;2023-02-01T00:36:45;18.15;;;3.47;;
76786;SDS011;65739;51.482;5.702;2023-02-01T00:39:12;19.75;;;3.58;;
76786;SDS011;65739;51.482;5.702;2023-02-01T00:41:46;9.98;;;3.10;;
76786;SDS011;65739;51.482;5.702;2023-02-01T00:44:15;26.27;;;3.50;;
76786;SDS011;65739;51.482;5.702;2023-02-01T00:46:41;17.70;;;3.80;;
76786;SDS011;65739;51.482;5.702;2023-02-01T00:49:07;16.98;;;3.40;;
76786;SDS011;65739;51.482;5.702;2023-02-01T00:51:55;15.40;;;2.95;;
76786;SDS011;65739;51.482;5.702;2023-02-01T00:54:20;14.38;;;2.70;;
76786;SDS011;65739;51.482;5.702;2023-02-01T00:56:49;15.48;;;3.15;;
76786;SDS011;65739;51.482;5.702;2023-02-01T00:59:14;22.98;;;3.88;;
76786;SDS011;65739;51.482;5.702;2023-02-01T01:01:43;25.60;;;3.70;;
76786;SDS011;65739;51.482;5.702;2023-02-01T01:06:43;16.92;;;3.20;;
76786;SDS011;65739;51.482;5.702;2023-02-01T01:09:09;12.35;;;2.80;;
76786;SDS011;65739;51.482;5.702;2023-02-01T01:11:38;28.38;;;3.30;;
76786;SDS011;65739;51.482;5.702;2023-02-01T01:14:04;16.75;;;2.90;;
76786;SDS011;65739;51.482;5.702;2023-02-01T01:16:34;22.85;;;2.97;;
76786;SDS011;65739;51.482;5.702;2023-02-01T01:19:03;16.70;;;2.75;;
76786;SDS011;65739;51.482;5.702;2023-02-01T01:21:32;11.38;;;2.38;;
76786;SDS011;65739;51.482;5.702;2023-02-01T01:23:58;27.20;;;2.85;;
76786;SDS011;65739;51.482;5.702;2023-02-01T01:26:28;16.48;;;3.50;;
76786;SDS011;65739;51.482;5.702;2023-02-01T01:29:08;15.60;;;2.85;;
76786;SDS011;65739;51.482;5.702;2023-02-01T01:31:55;15.88;;;2.60;;
76786;SDS011;65739;51.482;5.702;2023-02-01T01:37:29;14.65;;;2.70;;
76786;SDS011;65739;51.482;5.702;2023-02-01T01:39:55;21.35;;;2.95;;
76786;SDS011;65739;51.482;5.702;2023-02-01T01:42:24;17.70;;;2.53;;
76786;SDS011;65739;51.482;5.702;2023-02-01T01:48:04;10.70;;;2.25;;
76786;SDS011;65739;51.482;5.702;2023-02-01T01:50:41;19.25;;;3.20;;
76786;SDS011;65739;51.482;5.702;2023-02-01T01:53:16;18.05;;;2.83;;
76786;SDS011;65739;51.482;5.702;2023-02-01T01:55:57;18.75;;;3.08;;
76786;SDS011;65739;51.482;5.702;2023-02-01T01:58:29;20.70;;;3.85;;
76786;SDS011;65739;51.482;5.702;2023-02-01T02:01:03;15.88;;;3.33;;
76786;SDS011;65739;51.482;5.702;2023-02-01T02:06:45;10.13;;;2.72;;
76786;SDS011;65739;51.482;5.702;2023-02-01T02:09:13;19.63;;;3.15;;
76786;SDS011;65739;51.482;5.702;2023-02-01T02:11:40;16.30;;;3.28;;
76786;SDS011;65739;51.482;5.702;2023-02-01T02:14:11;14.15;;;2.65;;
76786;SDS011;65739;51.482;5.702;2023-02-01T02:16:59;18.27;;;2.97;;
76786;SDS011;65739;51.482;5.702;2023-02-01T02:19:59;11.55;;;2.95;;
76786;SDS011;65739;51.482;5.702;2023-02-01T02:28:41;16.80;;;2.97;;
76786;SDS011;65739;51.482;5.702;2023-02-01T02:31:39;16.05;;;3.50;;
76786;SDS011;65739;51.482;5.702;2023-02-01T02:37:09;16.80;;;3.33;;
76786;SDS011;65739;51.482;5.702;2023-02-01T02:39:51;21.45;;;3.40;;
76786;SDS011;65739;51.482;5.702;2023-02-01T02:46:21;26.88;;;3.63;;
76786;SDS011;65739;51.482;5.702;2023-02-01T02:49:27;15.65;;;3.33;;
76786;SDS011;65739;51.482;5.702;2023-02-01T02:52:08;26.13;;;4.18;;
76786;SDS011;65739;51.482;5.702;2023-02-01T02:55:00;20.98;;;3.53;;
76786;SDS011;65739;51.482;5.702;2023-02-01T02:57:39;15.77;;;2.85;;
76786;SDS011;65739;51.482;5.702;2023-02-01T03:00:29;12.23;;;3.28;;
76786;SDS011;65739;51.482;5.702;2023-02-01T03:03:18;18.17;;;2.90;;
76786;SDS011;65739;51.482;5.702;2023-02-01T03:06:10;18.52;;;3.83;;
76786;SDS011;65739;51.482;5.702;2023-02-01T03:08:41;23.33;;;4.10;;
76786;SDS011;65739;51.482;5.702;2023-02-01T03:11:11;17.70;;;3.72;;
76786;SDS011;65739;51.482;5.702;2023-02-01T03:13:59;19.42;;;3.88;;
76786;SDS011;65739;51.482;5.702;2023-02-01T03:16:32;25.08;;;4.22;;
76786;SDS011;65739;51.482;5.702;2023-02-01T03:19:15;20.27;;;4.00;;
76786;SDS011;65739;51.482;5.702;2023-02-01T03:22:24;14.77;;;2.88;;
76786;SDS011;65739;51.482;5.702;2023-02-01T03:25:08;14.60;;;2.80;;
76786;SDS011;65739;51.482;5.702;2023-02-01T03:27:55;18.85;;;4.10;;
76786;SDS011;65739;51.482;5.702;2023-02-01T03:30:30;18.10;;;2.72;;
76786;SDS011;65739;51.482;5.702;2023-02-01T03:33:03;15.35;;;2.92;;
76786;SDS011;65739;51.482;5.702;2023-02-01T03:35:40;19.45;;;3.25;;
76786;SDS011;65739;51.482;5.702;2023-02-01T03:41:28;27.15;;;4.18;;
76786;SDS011;65739;51.482;5.702;2023-02-01T03:44:34;23.88;;;3.25;;
76786;SDS011;65739;51.482;5.702;2023-02-01T03:50:03;16.38;;;3.10;;
76786;SDS011;65739;51.482;5.702;2023-02-01T03:52:38;20.20;;;3.85;;
76786;SDS011;65739;51.482;5.702;2023-02-01T03:55:10;23.42;;;3.22;;
76786;SDS011;65739;51.482;5.702;2023-02-01T03:58:04;14.95;;;2.90;;
76786;SDS011;65739;51.482;5.702;2023-02-01T04:00:58;20.38;;;2.80;;
76786;SDS011;65739;51.482;5.702;2023-02-01T04:03:25;20.90;;;3.13;;
76786;SDS011;65739;51.482;5.702;2023-02-01T04:05:52;22.58;;;4.32;;
76786;SDS011;65739;51.482;5.702;2023-02-01T04:08:21;15.05;;;3.10;;
76786;SDS011;65739;51.482;5.702;2023-02-01T04:10:47;14.23;;;3.08;;
76786;SDS011;65739;51.482;5.702;2023-02-01T04:13:16;18.10;;;3.60;;
76786;SDS011;65739;51.482;5.702;2023-02-01T04:15:46;17.38;;;3.10;;
76786;SDS011;65739;51.482;5.702;2023-02-01T04:18:20;19.95;;;3.13;;
76786;SDS011;65739;51.482;5.702;2023-02-01T04:21:03;23.90;;;3.42;;
76786;SDS011;65739;51.482;5.702;2023-02-01T04:23:30;26.05;;;3.40;;
76786;SDS011;65739;51.482;5.702;2023-02-01T04:26:17;24.23;;;3.30;;
76786;SDS011;65739;51.482;5.702;2023-02-01T04:28:44;24.60;;;3.17;;
76786;SDS011;65739;51.482;5.702;2023-02-01T04:31:13;11.50;;;2.47;;
76786;SDS011;65739;51.482;5.702;2023-02-01T04:33:43;19.40;;;2.80;;
76786;SDS011;65739;51.482;5.702;2023-02-01T04:36:12;27.20;;;3.50;;
76786;SDS011;65739;51.482;5.702;2023-02-01T04:38:38;16.42;;;3.90;;
76786;SDS011;65739;51.482;5.702;2023-02-01T04:41:06;21.20;;;3.50;;
76786;SDS011;65739;51.482;5.702;2023-02-01T04:43:32;27.75;;;3.30;;
76786;SDS011;65739;51.482;5.702;2023-02-01T04:46:01;18.38;;;3.38;;
76786;SDS011;65739;51.482;5.702;2023-02-01T04:48:27;19.25;;;3.75;;
76786;SDS011;65739;51.482;5.702;2023-02-01T04:50:53;19.63;;;3.05;;
76786;SDS011;65739;51.482;5.702;2023-02-01T04:53:21;20.63;;;3.47;;
76786;SDS011;65739;51.482;5.702;2023-02-01T04:55:50;19.88;;;3.42;;
76786;SDS011;65739;51.482;5.702;2023-02-01T04:58:16;21.65;;;3.30;;
76786;SDS011;65739;51.482;5.702;2023-02-01T05:00:45;23.42;;;3.42;;
76786;SDS011;65739;51.482;5.702;2023-02-01T05:03:10;23.95;;;4.15;;
76786;SDS011;65739;51.482;5.702;2023-02-01T05:05:36;28.67;;;3.70;;
76786;SDS011;65739;51.482;5.702;2023-02-01T05:08:05;22.75;;;3.53;;
76786;SDS011;65739;51.482;5.702;2023-02-01T05:10:30;18.10;;;3.28;;
76786;SDS011;65739;51.482;5.702;2023-02-01T05:12:59;18.75;;;3.35;;
76786;SDS011;65739;51.482;5.702;2023-02-01T05:15:43;20.25;;;3.05;;
76786;SDS011;65739;51.482;5.702;2023-02-01T05:18:13;21.33;;;3.42;;
76786;SDS011;65739;51.482;5.702;2023-02-01T05:20:39;19.08;;;3.15;;
76786;SDS011;65739;51.482;5.702;2023-02-01T05:23:07;26.27;;;3.15;;
76786;SDS011;65739;51.482;5.702;2023-02-01T05:25:33;21.23;;;4.00;;
76786;SDS011;65739;51.482;5.702;2023-02-01T05:27:59;20.38;;;3.08;;
76786;SDS011;65739;51.482;5.702;2023-02-01T05:30:27;21.77;;;3.13;;
76786;SDS011;65739;51.482;5.702;2023-02-01T05:32:53;21.95;;;2.78;;
76786;SDS011;65739;51.482;5.702;2023-02-01T05:35:19;22.55;;;3.15;;
76786;SDS011;65739;51.482;5.702;2023-02-01T05:37:47;18.50;;;3.80;;
76786;SDS011;65739;51.482;5.702;2023-02-01T05:40:13;19.80;;;2.88;;
76786;SDS011;65739;51.482;5.702;2023-02-01T05:42:42;20.63;;;3.25;;
76786;SDS011;65739;51.482;5.702;2023-02-01T05:45:08;20.15;;;3.33;;
76786;SDS011;65739;51.482;5.702;2023-02-01T05:47:45;18.65;;;3.03;;
76786;SDS011;65739;51.482;5.702;2023-02-01T05:50:17;16.83;;;3.38;;
76786;SDS011;65739;51.482;5.702;2023-02-01T05:52:46;19.13;;;3.13;;
76786;SDS011;65739;51.482;5.702;2023-02-01T05:55:15;15.93;;;3.20;;
76786;SDS011;65739;51.482;5.702;2023-02-01T05:57:41;24.35;;;4.88;;
76786;SDS011;65739;51.482;5.702;2023-02-01T06:00:16;20.40;;;3.60;;
76786;SDS011;65739;51.482;5.702;2023-02-01T06:02:50;19.77;;;4.40;;
76786;SDS011;65739;51.482;5.702;2023-02-01T06:05:25;25.83;;;3.90;;
76786;SDS011;65739;51.482;5.702;2023-02-01T06:07:53;27.67;;;4.80;;
76786;SDS011;65739;51.482;5.702;2023-02-01T06:10:22;22.35;;;3.65;;
76786;SDS011;65739;51.482;5.702;2023-02-01T06:12:59;17.30;;;3.47;;
76786;SDS011;65739;51.482;5.702;2023-02-01T06:15:28;19.20;;;2.85;;
76786;SDS011;65739;51.482;5.702;2023-02-01T06:17:58;19.58;;;3.50;;
76786;SDS011;65739;51.482;5.702;2023-02-01T06:20:24;19.90;;;3.67;;
76786;SDS011;65739;51.482;5.702;2023-02-01T06:22:53;23.52;;;3.83;;
76786;SDS011;65739;51.482;5.702;2023-02-01T06:25:18;29.92;;;3.90;;
76786;SDS011;65739;51.482;5.702;2023-02-01T06:27:47;21.38;;;3.50;;
76786;SDS011;65739;51.482;5.702;2023-02-01T06:30:16;22.05;;;3.78;;
76786;SDS011;65739;51.482;5.702;2023-02-01T06:32:42;24.48;;;4.28;;
76786;SDS011;65739;51.482;5.702;2023-02-01T06:35:11;23.95;;;4.30;;
76786;SDS011;65739;51.482;5.702;2023-02-01T06:37:41;28.83;;;4.25;;
76786;SDS011;65739;51.482;5.702;2023-02-01T06:40:07;28.20;;;4.00;;
76786;SDS011;65739;51.482;5.702;2023-02-01T06:42:37;29.60;;;3.83;;
76786;SDS011;65739;51.482;5.702;2023-02-01T06:45:05;22.50;;;3.90;;
76786;SDS011;65739;51.482;5.702;2023-02-01T06:47:35;21.90;;;3.80;;
76786;SDS011;65739;51.482;5.702;2023-02-01T06:50:01;26.13;;;3.83;;
76786;SDS011;65739;51.482;5.702;2023-02-01T06:52:29;22.75;;;4.57;;
76786;SDS011;65739;51.482;5.702;2023-02-01T06:54:55;28.13;;;4.15;;
76786;SDS011;65739;51.482;5.702;2023-02-01T06:57:21;33.67;;;4.32;;
76786;SDS011;65739;51.482;5.702;2023-02-01T06:59:47;27.95;;;4.28;;
76786;SDS011;65739;51.482;5.702;2023-02-01T07:02:22;24.65;;;4.28;;
76786;SDS011;65739;51.482;5.702;2023-02-01T07:04:50;29.60;;;4.53;;
76786;SDS011;65739;51.482;5.702;2023-02-01T07:07:19;20.83;;;3.60;;
76786;SDS011;65739;51.482;5.702;2023-02-01T07:09:50;23.85;;;3.53;;
76786;SDS011;65739;51.482;5.702;2023-02-01T07:12:19;22.92;;;4.20;;
76786;SDS011;65739;51.482;5.702;2023-02-01T07:17:34;25.85;;;4.32;;
76786;SDS011;65739;51.482;5.702;2023-02-01T07:20:03;21.85;;;3.80;;
76786;SDS011;65739;51.482;5.702;2023-02-01T07:25:37;29.42;;;3.80;;
76786;SDS011;65739;51.482;5.702;2023-02-01T07:28:06;27.27;;;4.90;;
76786;SDS011;65739;51.482;5.702;2023-02-01T07:31:14;26.45;;;4.35;;
76786;SDS011;65739;51.482;5.702;2023-02-01T07:33:53;28.77;;;4.40;;
76786;SDS011;65739;51.482;5.702;2023-02-01T07:36:41;28.10;;;3.75;;
76786;SDS011;65739;51.482;5.702;2023-02-01T07:39:07;24.65;;;4.30;;
76786;SDS011;65739;51.482;5.702;2023-02-01T07:41:36;25.63;;;3.58;;
76786;SDS011;65739;51.482;5.702;2023-02-01T07:44:02;29.52;;;4.05;;
76786;SDS011;65739;51.482;5.702;2023-02-01T07:46:30;22.20;;;3.42;;
76786;SDS011;65739;51.482;5.702;2023-02-01T07:48:56;24.73;;;3.72;;
76786;SDS011;65739;51.482;5.702;2023-02-01T07:51:22;26.17;;;4.18;;
76786;SDS011;65739;51.482;5.702;2023-02-01T07:53:50;25.38;;;3.88;;
76786;SDS011;65739;51.482;5.702;2023-02-01T07:56:17;25.20;;;3.72;;
76786;SDS011;65739;51.482;5.702;2023-02-01T07:58:51;22.33;;;3.72;;
76786;SDS011;65739;51.482;5.702;2023-02-01T08:01:24;25.77;;;3.90;;
76786;SDS011;65739;51.482;5.702;2023-02-01T08:03:58;24.33;;;4.18;;
76786;SDS011;65739;51.482;5.702;2023-02-01T08:06:26;21.05;;;3.72;;
76786;SDS011;65739;51.482;5.702;2023-02-01T08:09:04;31.05;;;4.28;;
76786;SDS011;65739;51.482;5.702;2023-02-01T08:11:35;16.40;;;3.80;;
76786;SDS011;65739;51.482;5.702;2023-02-01T08:14:04;29.13;;;5.13;;
76786;SDS011;65739;51.482;5.702;2023-02-01T08:16:33;18.75;;;4.22;;
76786;SDS011;65739;51.482;5.702;2023-02-01T08:19:07;22.95;;;3.63;;
76786;SDS011;65739;51.482;5.702;2023-02-01T08:21:32;28.00;;;4.07;;
76786;SDS011;65739;51.482;5.702;2023-02-01T08:24:10;21.55;;;3.95;;
76786;SDS011;65739;51.482;5.702;2023-02-01T08:26:36;22.60;;;4.10;;
76786;SDS011;65739;51.482;5.702;2023-02-01T08:29:03;19.70;;;4.22;;
76786;SDS011;65739;51.482;5.702;2023-02-01T08:31:30;25.65;;;4.47;;
76786;SDS011;65739;51.482;5.702;2023-02-01T08:33:58;28.00;;;3.65;;
76786;SDS011;65739;51.482;5.702;2023-02-01T08:36:26;20.52;;;3.22;;
76786;SDS011;65739;51.482;5.702;2023-02-01T08:39:04;26.48;;;3.60;;
76786;SDS011;65739;51.482;5.702;2023-02-01T08:41:34;19.77;;;3.20;;
76786;SDS011;65739;51.482;5.702;2023-02-01T08:44:05;20.42;;;3.58;;
76786;SDS011;65739;51.482;5.702;2023-02-01T08:46:31;20.40;;;3.90;;
76786;SDS011;65739;51.482;5.702;2023-02-01T08:48:59;16.15;;;3.33;;
76786;SDS011;65739;51.482;5.702;2023-02-01T08:51:28;29.63;;;4.10;;
76786;SDS011;65739;51.482;5.702;2023-02-01T08:53:54;23.52;;;3.55;;
76786;SDS011;65739;51.482;5.702;2023-02-01T08:56:23;20.17;;;3.58;;
76786;SDS011;65739;51.482;5.702;2023-02-01T08:58:49;18.38;;;3.22;;
76786;SDS011;65739;51.482;5.702;2023-02-01T09:01:15;23.77;;;3.30;;
76786;SDS011;65739;51.482;5.702;2023-02-01T09:03:43;21.88;;;3.20;;
76786;SDS011;65739;51.482;5.702;2023-02-01T09:06:13;18.92;;;2.97;;
76786;SDS011;65739;51.482;5.702;2023-02-01T09:11:07;21.20;;;3.15;;
76786;SDS011;65739;51.482;5.702;2023-02-01T09:13:35;17.20;;;2.95;;
76786;SDS011;65739;51.482;5.702;2023-02-01T09:16:07;23.33;;;3.05;;
76786;SDS011;65739;51.482;5.702;2023-02-01T09:18:33;18.45;;;3.00;;
76786;SDS011;65739;51.482;5.702;2023-02-01T09:21:03;23.90;;;3.83;;
76786;SDS011;65739;51.482;5.702;2023-02-01T09:23:32;24.33;;;3.10;;
76786;SDS011;65739;51.482;5.702;2023-02-01T09:26:10;20.42;;;3.55;;
76786;SDS011;65739;51.482;5.702;2023-02-01T09:28:37;19.38;;;3.65;;
76786;SDS011;65739;51.482;5.702;2023-02-01T09:31:05;17.10;;;3.30;;
76786;SDS011;65739;51.482;5.702;2023-02-01T09:33:42;18.27;;;3.38;;
76786;SDS011;65739;51.482;5.702;2023-02-01T09:36:07;21.20;;;3.25;;
76786;SDS011;65739;51.482;5.702;2023-02-01T09:38:33;22.00;;;3.20;;
76786;SDS011;65739;51.482;5.702;2023-02-01T09:40:59;12.93;;;2.60;;
76786;SDS011;65739;51.482;5.702;2023-02-01T09:48:54;18.92;;;3.63;;
76786;SDS011;65739;51.482;5.702;2023-02-01T09:51:31;23.63;;;3.42;;
76786;SDS011;65739;51.482;5.702;2023-02-01T09:59:25;17.77;;;3.42;;
76786;SDS011;65739;51.482;5.702;2023-02-01T10:02:20;17.58;;;2.60;;
76786;SDS011;65739;51.482;5.702;2023-02-01T10:05:04;19.95;;;2.97;;
76786;SDS011;65739;51.482;5.702;2023-02-01T10:07:38;22.70;;;2.80;;
76786;SDS011;65739;51.482;5.702;2023-02-01T10:10:40;18.77;;;2.83;;
76786;SDS011;65739;51.482;5.702;2023-02-01T10:18:48;14.07;;;2.67;;
76786;SDS011;65739;51.482;5.702;2023-02-01T10:21:32;15.93;;;3.03;;
76786;SDS011;65739;51.482;5.702;2023-02-01T10:24:20;16.58;;;2.30;;
76786;SDS011;65739;51.482;5.702;2023-02-01T10:27:17;14.32;;;2.88;;
76786;SDS011;65739;51.482;5.702;2023-02-01T10:29:56;16.70;;;2.78;;
76786;SDS011;65739;51.482;5.702;2023-02-01T10:32:28;18.23;;;2.70;;
76786;SDS011;65739;51.482;5.702;2023-02-01T10:34:57;19.08;;;3.13;;
76786;SDS011;65739;51.482;5.702;2023-02-01T10:37:29;15.02;;;2.90;;
76786;SDS011;65739;51.482;5.702;2023-02-01T10:39:57;11.00;;;2.47;;
76786;SDS011;65739;51.482;5.702;2023-02-01T10:42:37;14.18;;;2.45;;
76786;SDS011;65739;51.482;5.702;2023-02-01T10:45:04;20.17;;;3.08;;
76786;SDS011;65739;51.482;5.702;2023-02-01T10:47:31;16.08;;;2.55;;
76786;SDS011;65739;51.482;5.702;2023-02-01T10:52:35;19.33;;;2.92;;
76786;SDS011;65739;51.482;5.702;2023-02-01T10:57:58;21.33;;;2.78;;
76786;SDS011;65739;51.482;5.702;2023-02-01T11:00:26;15.52;;;2.25;;
76786;SDS011;65739;51.482;5.702;2023-02-01T11:02:52;11.02;;;2.40;;
76786;SDS011;65739;51.482;5.702;2023-02-01T11:05:19;13.68;;;2.42;;
76786;SDS011;65739;51.482;5.702;2023-02-01T11:07:53;14.15;;;2.70;;
76786;SDS011;65739;51.482;5.702;2023-02-01T11:10:38;20.73;;;2.72;;
76786;SDS011;65739;51.482;5.702;2023-02-01T11:13:17;15.18;;;3.00;;
76786;SDS011;65739;51.482;5.702;2023-02-01T11:15:46;13.98;;;2.95;;
76786;SDS011;65739;51.482;5.702;2023-02-01T11:18:19;16.65;;;2.38;;
76786;SDS011;65739;51.482;5.702;2023-02-01T11:20:51;19.23;;;2.45;;
76786;SDS011;65739;51.482;5.702;2023-02-01T11:23:21;20.42;;;3.03;;
76786;SDS011;65739;51.482;5.702;2023-02-01T11:25:53;20.10;;;3.08;;
76786;SDS011;65739;51.482;5.702;2023-02-01T11:28:22;13.20;;;2.08;;
76786;SDS011;65739;51.482;5.702;2023-02-01T11:30:56;13.52;;;2.42;;
76786;SDS011;65739;51.482;5.702;2023-02-01T11:33:35;13.23;;;2.67;;
76786;SDS011;65739;51.482;5.702;2023-02-01T11:36:06;16.27;;;2.80;;
76786;SDS011;65739;51.482;5.702;2023-02-01T11:38:35;21.38;;;2.70;;
76786;SDS011;65739;51.482;5.702;2023-02-01T11:41:14;19.45;;;2.65;;
76786;SDS011;65739;51.482;5.702;2023-02-01T11:43:52;20.15;;;2.90;;
76786;SDS011;65739;51.482;5.702;2023-02-01T11:46:33;18.98;;;2.58;;
76786;SDS011;65739;51.482;5.702;2023-02-01T11:49:13;20.83;;;2.47;;
76786;SDS011;65739;51.482;5.702;2023-02-01T11:52:03;15.65;;;2.58;;
76786;SDS011;65739;51.482;5.702;2023-02-01T11:54:48;14.95;;;2.72;;
76786;SDS011;65739;51.482;5.702;2023-02-01T11:57:39;14.35;;;2.50;;
76786;SDS011;65739;51.482;5.702;2023-02-01T12:00:31;13.07;;;2.28;;
76786;SDS011;65739;51.482;5.702;2023-02-01T12:18:24;12.48;;;2.42;;
76786;SDS011;65739;51.482;5.702;2023-02-01T12:38:03;16.05;;;2.03;;
76786;SDS011;65739;51.482;5.702;2023-02-01T12:40:53;14.20;;;2.45;;
76786;SDS011;65739;51.482;5.702;2023-02-01T12:44:03;17.45;;;3.50;;
76786;SDS011;65739;51.482;5.702;2023-02-01T12:46:56;18.08;;;3.08;;
76786;SDS011;65739;51.482;5.702;2023-02-01T12:49:38;15.82;;;2.90;;
76786;SDS011;65739;51.482;5.702;2023-02-01T12:52:10;11.75;;;2.38;;
76786;SDS011;65739;51.482;5.702;2023-02-01T12:58:03;15.18;;;2.55;;
76786;SDS011;65739;51.482;5.702;2023-02-01T13:06:02;16.77;;;2.17;;
76786;SDS011;65739;51.482;5.702;2023-02-01T13:08:42;18.58;;;2.60;;
76786;SDS011;65739;51.482;5.702;2023-02-01T13:11:28;22.30;;;2.13;;
76786;SDS011;65739;51.482;5.702;2023-02-01T13:17:18;14.90;;;2.30;;
76786;SDS011;65739;51.482;5.702;2023-02-01T13:19:58;19.00;;;2.30;;
76786;SDS011;65739;51.482;5.702;2023-02-01T13:22:36;16.50;;;2.22;;
76786;SDS011;65739;51.482;5.702;2023-02-01T13:25:19;12.45;;;2.00;;
76786;SDS011;65739;51.482;5.702;2023-02-01T13:27:49;16.05;;;4.15;;
76786;SDS011;65739;51.482;5.702;2023-02-01T13:30:20;14.02;;;2.13;;
76786;SDS011;65739;51.482;5.702;2023-02-01T13:36:00;16.85;;;2.80;;
76786;SDS011;65739;51.482;5.702;2023-02-01T13:39:02;10.57;;;2.05;;
76786;SDS011;65739;51.482;5.702;2023-02-01T13:44:34;19.75;;;3.22;;
76786;SDS011;65739;51.482;5.702;2023-02-01T13:49:50;16.23;;;2.83;;
76786;SDS011;65739;51.482;5.702;2023-02-01T13:52:26;14.82;;;2.33;;
76786;SDS011;65739;51.482;5.702;2023-02-01T13:57:45;11.15;;;2.22;;
76786;SDS011;65739;51.482;5.702;2023-02-01T14:10:46;15.05;;;2.92;;
76786;SDS011;65739;51.482;5.702;2023-02-01T14:26:49;11.60;;;2.47;;
76786;SDS011;65739;51.482;5.702;2023-02-01T14:31:54;13.55;;;2.50;;
76786;SDS011;65739;51.482;5.702;2023-02-01T14:34:28;17.35;;;2.35;;
76786;SDS011;65739;51.482;5.702;2023-02-01T14:37:04;14.35;;;2.08;;
76786;SDS011;65739;51.482;5.702;2023-02-01T14:42:45;15.15;;;2.45;;
76786;SDS011;65739;51.482;5.702;2023-02-01T14:53:15;19.02;;;2.63;;
76786;SDS011;65739;51.482;5.702;2023-02-01T14:55:53;18.27;;;2.30;;
76786;SDS011;65739;51.482;5.702;2023-02-01T15:09:17;14.45;;;2.65;;
76786;SDS011;65739;51.482;5.702;2023-02-01T15:14:31;14.88;;;2.42;;
76786;SDS011;65739;51.482;5.702;2023-02-01T15:16:58;16.85;;;3.55;;
76786;SDS011;65739;51.482;5.702;2023-02-01T15:19:25;17.40;;;2.70;;
76786;SDS011;65739;51.482;5.702;2023-02-01T15:21:53;17.50;;;2.70;;
76786;SDS011;65739;51.482;5.702;2023-02-01T15:24:28;16.23;;;2.10;;
76786;SDS011;65739;51.482;5.702;2023-02-01T15:26:56;10.65;;;2.45;;
76786;SDS011;65739;51.482;5.702;2023-02-01T15:29:28;17.90;;;2.65;;
76786;SDS011;65739;51.482;5.702;2023-02-01T15:31:57;12.80;;;1.98;;
76786;SDS011;65739;51.482;5.702;2023-02-01T15:34:23;16.55;;;2.78;;
76786;SDS011;65739;51.482;5.702;2023-02-01T15:37:13;16.48;;;2.45;;
76786;SDS011;65739;51.482;5.702;2023-02-01T15:42:58;16.80;;;2.30;;
76786;SDS011;65739;51.482;5.702;2023-02-01T15:45:31;11.63;;;2.58;;
76786;SDS011;65739;51.482;5.702;2023-02-01T15:48:03;14.32;;;2.10;;
76786;SDS011;65739;51.482;5.702;2023-02-01T15:50:30;15.90;;;2.10;;
76786;SDS011;65739;51.482;5.702;2023-02-01T15:52:56;12.13;;;2.10;;
76786;SDS011;65739;51.482;5.702;2023-02-01T15:58:08;13.68;;;2.30;;
76786;SDS011;65739;51.482;5.702;2023-02-01T16:03:27;24.33;;;2.92;;
76786;SDS011;65739;51.482;5.702;2023-02-01T16:06:02;14.35;;;2.83;;
76786;SDS011;65739;51.482;5.702;2023-02-01T16:08:30;15.07;;;2.22;;
76786;SDS011;65739;51.482;5.702;2023-02-01T16:11:01;14.35;;;3.10;;
76786;SDS011;65739;51.482;5.702;2023-02-01T16:13:45;18.50;;;2.60;;
76786;SDS011;65739;51.482;5.702;2023-02-01T16:16:11;13.77;;;2.28;;
76786;SDS011;65739;51.482;5.702;2023-02-01T16:18:39;16.58;;;2.95;;
76786;SDS011;65739;51.482;5.702;2023-02-01T16:21:05;17.75;;;3.30;;
76786;SDS011;65739;51.482;5.702;2023-02-01T16:23:33;18.27;;;2.92;;
76786;SDS011;65739;51.482;5.702;2023-02-01T16:25:59;20.77;;;3.47;;
76786;SDS011;65739;51.482;5.702;2023-02-01T16:28:25;19.10;;;2.63;;
76786;SDS011;65739;51.482;5.702;2023-02-01T16:30:51;14.90;;;2.67;;
76786;SDS011;65739;51.482;5.702;2023-02-01T16:33:18;17.08;;;2.58;;
76786;SDS011;65739;51.482;5.702;2023-02-01T16:35:47;13.95;;;2.85;;
76786;SDS011;65739;51.482;5.702;2023-02-01T16:38:14;10.23;;;2.60;;
76786;SDS011;65739;51.482;5.702;2023-02-01T16:40:43;16.23;;;2.80;;
76786;SDS011;65739;51.482;5.702;2023-02-01T16:43:14;12.82;;;2.58;;
76786;SDS011;65739;51.482;5.702;2023-02-01T16:45:48;24.80;;;3.05;;
76786;SDS011;65739;51.482;5.702;2023-02-01T16:48:27;19.42;;;3.00;;
76786;SDS011;65739;51.482;5.702;2023-02-01T16:50:54;22.73;;;2.70;;
76786;SDS011;65739;51.482;5.702;2023-02-01T16:53:22;20.95;;;3.67;;
76786;SDS011;65739;51.482;5.702;2023-02-01T16:56:01;17.20;;;3.08;;
76786;SDS011;65739;51.482;5.702;2023-02-01T17:01:22;19.92;;;2.80;;
76786;SDS011;65739;51.482;5.702;2023-02-01T17:04:01;19.42;;;2.63;;
76786;SDS011;65739;51.482;5.702;2023-02-01T17:06:30;17.17;;;2.65;;
76786;SDS011;65739;51.482;5.702;2023-02-01T17:09:22;18.08;;;2.85;;
76786;SDS011;65739;51.482;5.702;2023-02-01T17:11:54;25.38;;;2.90;;
76786;SDS011;65739;51.482;5.702;2023-02-01T17:14:20;21.38;;;3.20;;
76786;SDS011;65739;51.482;5.702;2023-02-01T17:16:46;17.15;;;4.03;;
76786;SDS011;65739;51.482;5.702;2023-02-01T17:19:20;14.38;;;2.60;;
76786;SDS011;65739;51.482;5.702;2023-02-01T17:21:51;19.40;;;3.58;;
76786;SDS011;65739;51.482;5.702;2023-02-01T17:24:21;15.63;;;2.92;;
76786;SDS011;65739;51.482;5.702;2023-02-01T17:26:48;14.98;;;2.20;;
76786;SDS011;65739;51.482;5.702;2023-02-01T17:29:17;13.73;;;2.63;;
76786;SDS011;65739;51.482;5.702;2023-02-01T17:31:53;15.77;;;2.80;;
76786;SDS011;65739;51.482;5.702;2023-02-01T17:34:36;11.95;;;2.80;;
76786;SDS011;65739;51.482;5.702;2023-02-01T17:37:05;24.75;;;3.42;;
76786;SDS011;65739;51.482;5.702;2023-02-01T17:39:45;20.35;;;3.47;;
76786;SDS011;65739;51.482;5.702;2023-02-01T17:42:19;14.55;;;3.10;;
76786;SDS011;65739;51.482;5.702;2023-02-01T17:44:45;16.15;;;2.58;;
76786;SDS011;65739;51.482;5.702;2023-02-01T17:47:32;26.20;;;3.38;;
76786;SDS011;65739;51.482;5.702;2023-02-01T17:50:00;19.63;;;3.00;;
76786;SDS011;65739;51.482;5.702;2023-02-01T17:52:28;18.92;;;2.80;;
76786;SDS011;65739;51.482;5.702;2023-02-01T17:54:57;14.90;;;2.58;;
76786;SDS011;65739;51.482;5.702;2023-02-01T17:57:23;14.85;;;2.90;;
76786;SDS011;65739;51.482;5.702;2023-02-01T17:59:48;16.90;;;2.97;;
76786;SDS011;65739;51.482;5.702;2023-02-01T18:02:16;14.63;;;2.80;;
76786;SDS011;65739;51.482;5.702;2023-02-01T18:04:52;14.57;;;2.80;;
76786;SDS011;65739;51.482;5.702;2023-02-01T18:07:41;16.85;;;2.67;;